Time;durP1;ratioP1;P1;durP2;ratioP2;P2;SDS_P1;SDS_P2;PMS_P1;PMS_P2;Temp;Humidity;BMP_temperature;BMP_pressure;BME280_temperature;BME280_humidity;BME280_pressure;Samples;Min_cycle;Max_cycle;Signal;HPM_P1;HPM_P2
2021/10/08 00:02:25;;;;;;;12.15;4.70;;;;;;;4.48;78.54;102805.39;1697598;83;21626;-91
2021/10/08 00:04:51;;;;;;;7.75;2.50;;;;;;;4.52;78.68;102804.55;1697545;83;21890;-93
2021/10/08 00:07:17;;;;;;;6.12;2.40;;;;;;;4.53;78.95;102811.08;1697599;83;20889;-91
2021/10/08 00:09:43;;;;;;;9.58;2.40;;;;;;;4.57;79.23;102804.91;1697579;83;20916;-91
2021/10/08 00:12:09;;;;;;;5.92;2.05;;;;;;;4.63;79.55;102816.77;1697703;83;21646;-92
2021/10/08 00:14:35;;;;;;;5.75;2.20;;;;;;;4.65;78.82;102812.93;1697587;83;21103;-91
2021/10/08 00:17:01;;;;;;;7.72;2.00;;;;;;;4.69;80.04;102810.25;1697533;83;21149;-92
2021/10/08 00:19:27;;;;;;;8.15;1.92;;;;;;;4.74;79.79;102807.09;1697571;83;21043;-92
2021/10/08 00:21:53;;;;;;;5.95;2.20;;;;;;;4.78;79.77;102808.42;1697809;83;21033;-92
2021/10/08 00:24:19;;;;;;;10.55;2.83;;;;;;;4.83;80.42;102805.27;1697671;83;21123;-91
2021/10/08 00:26:45;;;;;;;6.20;1.98;;;;;;;4.85;79.98;102806.73;1697649;83;21721;-91
2021/10/08 00:29:11;;;;;;;6.62;2.10;;;;;;;4.91;80.01;102807.91;1697856;84;21097;-93
2021/10/08 00:31:38;;;;;;;7.67;2.05;;;;;;;4.98;79.55;102806.25;1707217;83;21278;-92
2021/10/08 00:34:04;;;;;;;7.37;2.20;;;;;;;5.06;78.68;102808.93;1697644;83;21112;-91
2021/10/08 00:36:30;;;;;;;7.45;1.77;;;;;;;5.18;76.56;102799.55;1697517;83;20893;-92
2021/10/08 00:38:57;;;;;;;9.68;2.55;;;;;;;5.33;73.95;102802.87;1707628;83;21658;-94
2021/10/08 00:41:25;;;;;;;6.30;2.00;;;;;;;5.46;72.13;102801.83;1697526;83;21922;-92
2021/10/08 00:43:53;;;;;;;10.48;2.65;;;;;;;5.55;70.99;102798.12;1697855;83;20992;-93
2021/10/08 00:46:19;;;;;;;6.42;2.25;;;;;;;5.66;68.96;102800.94;1697726;83;21039;-94
2021/10/08 00:48:52;;;;;;;5.92;2.02;;;;;;;5.76;68.00;102797.55;1697946;83;21009;-94
2021/10/08 00:51:20;;;;;;;6.17;2.35;;;;;;;5.84;66.21;102796.69;1696797;83;21044;-92
2021/10/08 00:53:46;;;;;;;6.55;2.37;;;;;;;5.91;65.41;102795.83;1681222;84;21531;-94
2021/10/08 00:56:13;;;;;;;6.85;2.45;;;;;;;5.97;64.87;102790.32;1679612;84;20886;-92
2021/10/08 00:58:42;;;;;;;12.98;2.50;;;;;;;6.01;64.35;102792.97;1678587;84;21031;-92
2021/10/08 01:01:09;;;;;;;8.10;2.45;;;;;;;6.06;63.89;102789.74;1678651;84;21106;-92
2021/10/08 01:03:36;;;;;;;5.58;2.15;;;;;;;6.11;63.26;102787.38;1679229;84;21106;-94
2021/10/08 01:06:03;;;;;;;12.90;2.58;;;;;;;6.16;62.96;102788.20;1678997;84;21296;-94
2021/10/08 01:08:29;;;;;;;6.22;1.90;;;;;;;6.20;62.72;102791.67;1678672;84;21050;-92
2021/10/08 01:10:57;;;;;;;9.58;2.67;;;;;;;6.24;61.96;102786.31;1679088;84;21030;-92
2021/10/08 01:13:23;;;;;;;9.73;2.52;;;;;;;6.29;61.38;102791.12;1678450;84;21099;-93
2021/10/08 01:15:54;;;;;;;10.10;2.33;;;;;;;6.33;60.62;102791.12;1678963;84;21840;-94
2021/10/08 01:18:22;;;;;;;10.78;2.20;;;;;;;6.35;60.45;102789.94;1678863;84;21169;-92
2021/10/08 01:20:48;;;;;;;8.13;2.25;;;;;;;6.38;60.11;102794.08;1678755;84;21047;-94
2021/10/08 01:23:14;;;;;;;9.28;2.52;;;;;;;6.41;59.76;102796.39;1678930;84;20895;-94
2021/10/08 01:25:39;;;;;;;8.88;2.47;;;;;;;6.44;59.68;102796.07;1679140;84;20892;-93
2021/10/08 01:28:06;;;;;;;10.20;2.60;;;;;;;6.43;58.99;102790.88;1679036;84;20873;-91
2021/10/08 01:30:33;;;;;;;9.73;2.70;;;;;;;6.49;58.79;102800.37;1679016;84;21157;-91
2021/10/08 01:32:59;;;;;;;6.85;2.65;;;;;;;6.51;58.34;102795.67;1678821;84;21036;-95
2021/10/08 01:35:25;;;;;;;7.05;2.37;;;;;;;6.54;58.54;102794.48;1678923;84;21067;-94
2021/10/08 01:37:51;;;;;;;8.55;2.45;;;;;;;6.55;58.27;102796.14;1678683;84;20952;-92
2021/10/08 01:40:18;;;;;;;14.55;2.62;;;;;;;6.58;57.64;102794.45;1678991;84;21087;-94
2021/10/08 01:42:44;;;;;;;6.28;2.47;;;;;;;6.61;57.35;102796.77;1678718;84;21696;-93
2021/10/08 01:45:14;;;;;;;8.53;2.52;;;;;;;6.63;56.94;102798.77;1678802;84;21029;-91
2021/10/08 01:47:40;;;;;;;8.38;2.08;;;;;;;6.66;56.84;102802.43;1678838;84;21079;-95
2021/10/08 01:50:08;;;;;;;10.00;2.50;;;;;;;6.69;56.53;102795.38;1684008;83;21012;-93
2021/10/08 01:52:34;;;;;;;6.87;2.05;;;;;;;6.70;56.39;102799.70;1695073;83;20961;-94
2021/10/08 01:55:00;;;;;;;7.58;2.47;;;;;;;6.71;56.47;102798.72;1695255;84;21588;-92
2021/10/08 01:57:26;;;;;;;7.50;2.42;;;;;;;6.72;56.35;102803.05;1694698;83;20899;-94
2021/10/08 01:59:53;;;;;;;9.45;2.35;;;;;;;6.72;56.34;102796.35;1695060;83;20961;-90
2021/10/08 02:02:20;;;;;;;9.88;3.02;;;;;;;6.72;56.42;102796.86;1695040;83;21043;-94
2021/10/08 02:04:47;;;;;;;6.58;2.25;;;;;;;6.72;56.06;102801.71;1692585;83;21099;-93
2021/10/08 02:07:14;;;;;;;11.03;2.20;;;;;;;6.74;56.17;102806.39;1694872;83;21141;-91
2021/10/08 02:09:42;;;;;;;8.43;1.90;;;;;;;6.74;56.23;102801.03;1694884;83;21116;-91
2021/10/08 02:12:10;;;;;;;5.85;1.90;;;;;;;6.72;56.45;102808.92;1695208;83;21025;-93
2021/10/08 02:14:35;;;;;;;10.18;2.52;;;;;;;6.72;56.26;102804.39;1695297;83;21044;-93
2021/10/08 02:17:02;;;;;;;5.37;2.00;;;;;;;6.73;56.38;102799.34;1695114;83;20905;-91
2021/10/08 02:19:28;;;;;;;7.97;2.42;;;;;;;6.74;56.29;102797.53;1695135;83;21970;-91
2021/10/08 02:21:54;;;;;;;13.00;2.75;;;;;;;6.64;56.13;102779.51;1695137;83;20976;-92
2021/10/08 02:24:20;;;;;;;14.43;2.87;;;;;;;6.64;56.13;102779.51;1695143;83;21075;-90
2021/10/08 02:26:46;;;;;;;5.78;2.15;;;;;;;6.75;56.28;102797.33;1695341;83;21227;-92
2021/10/08 02:29:12;;;;;;;10.03;2.35;;;;;;;6.76;55.93;102803.52;1695156;83;20989;-93
2021/10/08 02:31:38;;;;;;;10.40;2.37;;;;;;;6.73;55.83;102795.33;1694983;83;21054;-90
2021/10/08 02:34:05;;;;;;;14.30;2.25;;;;;;;6.77;56.03;102802.53;1694875;83;21024;-92
2021/10/08 02:36:31;;;;;;;5.35;1.95;;;;;;;6.76;56.04;102815.06;1695152;83;21068;-92
2021/10/08 02:38:57;;;;;;;6.92;2.00;;;;;;;6.76;55.61;102805.69;1694472;83;21167;-92
2021/10/08 02:41:24;;;;;;;7.33;2.00;;;;;;;6.78;55.50;102809.03;1694841;83;21036;-93
2021/10/08 02:43:50;;;;;;;6.12;2.00;;;;;;;6.79;55.69;102810.72;1694770;83;21642;-93
2021/10/08 02:46:16;;;;;;;19.17;3.30;;;;;;;6.76;55.80;102818.25;1694911;83;21428;-94
2021/10/08 02:48:41;;;;;;;8.90;2.00;;;;;;;6.75;56.07;102812.07;1694842;83;20872;-91
2021/10/08 02:51:07;;;;;;;5.10;1.85;;;;;;;6.75;56.12;102816.09;1694993;83;20881;-90
2021/10/08 02:53:33;;;;;;;8.75;1.75;;;;;;;6.66;55.83;102798.92;1702896;83;20987;-92
2021/10/08 02:55:59;;;;;;;7.42;2.42;;;;;;;6.74;55.91;102811.75;1695145;84;21110;-91
2021/10/08 02:58:26;;;;;;;12.55;2.83;;;;;;;6.74;55.99;102817.63;1692319;83;20900;-90
2021/10/08 03:00:52;;;;;;;11.68;2.22;;;;;;;6.72;55.96;102819.13;1695097;83;21016;-90
2021/10/08 03:03:19;;;;;;;9.40;1.95;;;;;;;6.70;56.01;102815.78;1695136;83;21252;-91
2021/10/08 03:05:44;;;;;;;8.13;1.77;;;;;;;6.69;56.43;102821.34;1695283;83;21092;-90
2021/10/08 03:08:10;;;;;;;10.15;2.55;;;;;;;6.68;56.25;102819.68;1673310;84;21109;-91
2021/10/08 03:10:37;;;;;;;16.12;2.52;;;;;;;6.68;56.25;102819.68;1673504;84;21744;-92
2021/10/08 03:13:03;;;;;;;9.25;2.37;;;;;;;6.66;56.55;102818.50;1673418;84;21143;-93
2021/10/08 03:15:30;;;;;;;9.38;1.87;;;;;;;6.66;56.55;102817.16;1673485;84;21531;-92
2021/10/08 03:17:56;;;;;;;9.28;2.45;;;;;;;6.65;56.35;102815.51;1673440;84;21004;-92
2021/10/08 03:20:22;;;;;;;10.78;2.17;;;;;;;6.66;56.55;102821.19;1673259;84;21094;-92
2021/10/08 03:22:49;;;;;;;8.15;2.55;;;;;;;6.68;56.39;102822.36;1673185;84;21102;-93
2021/10/08 03:25:15;;;;;;;12.55;2.50;;;;;;;6.66;56.47;102825.20;1673140;84;21058;-91
2021/10/08 03:27:41;;;;;;;10.98;1.75;;;;;;;6.66;56.78;102831.08;1673313;84;21016;-92
2021/10/08 03:30:12;;;;;;;13.10;1.90;;;;;;;6.65;56.83;102836.94;1673176;84;21177;-92
2021/10/08 03:32:38;;;;;;;10.88;2.00;;;;;;;6.64;56.97;102834.42;1682873;83;21789;-90
2021/10/08 03:35:05;;;;;;;8.90;2.00;;;;;;;6.64;56.61;102833.09;1694825;83;21567;-91
2021/10/08 03:37:42;;;;;;;7.45;2.00;;;;;;;6.64;56.91;102834.42;1695053;83;21097;-90
2021/10/08 03:40:02;;;;;;;11.43;2.77;;;;;;;6.64;56.83;102838.45;1693906;83;21497;-89
2021/10/08 03:42:28;;;;;;;16.05;2.30;;;;;;;6.63;56.70;102830.09;1664720;84;20972;-90
2021/10/08 03:44:57;;;;;;;8.53;1.90;;;;;;;6.63;56.77;102832.26;1695189;83;21144;-91
2021/10/08 03:47:27;;;;;;;9.10;2.47;;;;;;;6.62;56.93;102838.64;1693659;83;21036;-91
2021/10/08 03:49:52;;;;;;;15.63;2.42;;;;;;;6.61;57.00;102831.59;1692387;83;21040;-89
2021/10/08 03:52:18;;;;;;;10.80;2.00;;;;;;;6.62;57.03;102833.28;1694759;83;21256;-92
2021/10/08 03:54:44;;;;;;;13.58;2.42;;;;;;;6.61;57.14;102838.29;1695166;83;21313;-91
2021/10/08 03:57:10;;;;;;;12.35;2.40;;;;;;;6.60;57.95;102846.01;1694841;83;21135;-93
2021/10/08 03:59:36;;;;;;;11.40;2.00;;;;;;;6.59;58.45;102837.66;1695119;83;20893;-95
2021/10/08 04:02:02;;;;;;;17.10;2.02;;;;;;;6.58;57.98;102835.97;1694926;83;20972;-93
2021/10/08 04:04:28;;;;;;;10.72;2.20;;;;;;;6.57;57.88;102833.80;1695040;83;21076;-92
2021/10/08 04:06:54;;;;;;;16.77;1.90;;;;;;;6.54;57.89;102831.48;1702868;83;21449;-92
2021/10/08 04:09:20;;;;;;;8.50;1.98;;;;;;;6.55;57.75;102837.66;1694876;83;21090;-91
2021/10/08 04:11:46;;;;;;;11.12;2.45;;;;;;;6.54;57.76;102840.85;1695162;83;20895;-92
2021/10/08 04:14:12;;;;;;;16.23;2.65;;;;;;;6.54;58.16;102835.50;1695008;83;20881;-91
2021/10/08 04:16:37;;;;;;;10.20;2.05;;;;;;;6.55;57.98;102838.49;1694881;83;21061;-90
2021/10/08 04:19:06;;;;;;;12.82;2.05;;;;;;;6.54;58.09;102836.84;1694935;83;21004;-90
2021/10/08 04:21:33;;;;;;;10.38;1.90;;;;;;;6.54;58.03;102844.05;1695152;84;22200;-93
2021/10/08 04:23:59;;;;;;;10.23;2.50;;;;;;;6.54;58.11;102839.52;1693805;83;21013;-92
2021/10/08 04:26:25;;;;;;;13.10;2.83;;;;;;;6.54;58.12;102843.53;1695097;83;20993;-93
2021/10/08 04:28:50;;;;;;;18.95;3.22;;;;;;;6.56;57.97;102844.71;1694997;83;20968;-93
2021/10/08 04:31:16;;;;;;;21.57;2.50;;;;;;;6.56;58.08;102840.69;1702604;83;21059;-87
2021/10/08 04:33:42;;;;;;;17.55;2.83;;;;;;;6.58;57.94;102841.33;1694974;83;21128;-89
2021/10/08 04:36:08;;;;;;;17.20;2.85;;;;;;;6.58;57.94;102841.33;1695028;83;21722;-91
2021/10/08 04:38:34;;;;;;;20.17;2.20;;;;;;;6.60;58.00;102852.70;1694752;83;21505;-91
2021/10/08 04:41:00;;;;;;;12.30;2.20;;;;;;;6.61;57.66;102844.98;1694917;83;20933;-90
2021/10/08 04:43:27;;;;;;;12.85;2.40;;;;;;;6.64;57.63;102855.34;1694598;83;21055;-90
2021/10/08 04:45:54;;;;;;;10.60;2.45;;;;;;;6.69;57.56;102858.84;1695832;83;21100;-91
2021/10/08 04:48:20;;;;;;;14.60;2.42;;;;;;;6.70;57.31;102857.31;1694738;83;21017;-90
2021/10/08 04:50:46;;;;;;;10.82;2.33;;;;;;;6.72;57.26;102863.34;1694976;83;21107;-88
2021/10/08 04:53:22;;;;;;;17.62;2.40;;;;;;;6.75;57.48;102861.64;1694902;83;21529;-89
2021/10/08 04:55:49;;;;;;;16.15;2.52;;;;;;;6.77;57.37;102869.00;1694905;83;21083;-89
2021/10/08 04:58:17;;;;;;;10.50;2.95;;;;;;;6.79;57.52;102881.73;1699425;83;21140;-91
2021/10/08 05:00:45;;;;;;;11.28;2.30;;;;;;;6.81;57.45;102868.97;1699870;83;21582;-88
2021/10/08 05:03:16;;;;;;;15.40;3.02;;;;;;;6.85;57.18;102876.13;1694298;83;21021;-90
2021/10/08 05:05:47;;;;;;;11.08;2.27;;;;;;;6.87;57.42;102871.44;1642808;85;21161;-91
2021/10/08 05:08:18;;;;;;;9.50;2.35;;;;;;;6.92;57.71;102873.09;1644492;86;21506;-90
2021/10/08 05:10:45;;;;;;;8.73;2.17;;;;;;;6.94;57.47;102881.79;1561640;91;22184;-88
2021/10/08 05:13:13;;;;;;;15.53;2.27;;;;;;;6.97;57.25;102879.23;1561789;91;21122;-88
2021/10/08 05:15:39;;;;;;;9.08;2.17;;;;;;;7.03;57.57;102882.05;1562037;91;21019;-88
2021/10/08 05:18:06;;;;;;;21.68;2.80;;;;;;;7.07;56.68;102887.87;1561831;91;20975;-88
2021/10/08 05:20:32;;;;;;;12.70;2.52;;;;;;;7.12;56.64;102880.14;1562161;91;21653;-91
2021/10/08 05:22:58;;;;;;;23.87;4.28;;;;;;;7.16;56.43;102872.05;1561836;91;21143;-90
2021/10/08 05:25:24;;;;;;;17.02;2.85;;;;;;;7.20;55.92;102884.07;1561637;91;21043;-88
2021/10/08 05:27:50;;;;;;;24.37;3.02;;;;;;;7.25;55.94;102890.25;1561973;91;21602;-92
2021/10/08 05:30:16;;;;;;;14.75;2.75;;;;;;;7.30;55.52;102882.50;1542086;91;20932;-85
2021/10/08 05:32:43;;;;;;;17.62;2.77;;;;;;;7.36;55.01;102891.67;1561872;91;21128;-93
2021/10/08 05:35:10;;;;;;;12.00;2.52;;;;;;;7.44;55.96;102893.77;1562005;91;21131;-91
2021/10/08 05:37:37;;;;;;;12.65;2.75;;;;;;;7.56;55.24;102892.83;1561841;91;21658;-92
2021/10/08 05:40:06;;;;;;;14.95;2.90;;;;;;;7.61;55.12;102885.03;1561950;91;21521;-95
2021/10/08 05:42:32;;;;;;;8.30;2.62;;;;;;;7.69;54.96;102893.01;1558912;91;21182;-90
2021/10/08 05:44:59;;;;;;;21.45;2.75;;;;;;;7.77;54.99;102896.64;1562074;91;21059;-89
2021/10/08 05:47:26;;;;;;;14.15;2.83;;;;;;;7.85;54.21;102887.99;1561782;91;21165;-94
2021/10/08 05:49:53;;;;;;;17.62;3.62;;;;;;;7.96;53.84;102890.70;1562047;91;21118;-94
2021/10/08 05:52:19;;;;;;;20.75;3.42;;;;;;;8.02;53.46;102896.67;1562041;91;21146;-89
2021/10/08 05:54:44;;;;;;;14.73;2.77;;;;;;;8.11;53.54;102898.75;1562128;91;20932;-90
2021/10/08 05:57:11;;;;;;;15.28;2.98;;;;;;;8.17;53.08;102897.48;1559094;91;20952;-93
2021/10/08 05:59:37;;;;;;;16.48;2.83;;;;;;;8.31;53.14;102907.08;1553575;92;21960;-88
2021/10/08 06:02:04;;;;;;;16.65;2.87;;;;;;;8.43;52.61;102908.80;1561237;90;21075;-88
2021/10/08 06:04:29;;;;;;;20.00;2.55;;;;;;;8.52;52.44;102900.43;1579336;90;21166;-92
2021/10/08 06:06:55;;;;;;;11.22;2.90;;;;;;;8.64;52.06;102911.00;1600207;84;21010;-88
2021/10/08 06:09:21;;;;;;;22.82;2.98;;;;;;;8.77;51.74;102902.27;1669397;84;20931;-89
2021/10/08 06:11:47;;;;;;;13.78;3.37;;;;;;;8.97;51.53;102904.31;1669720;84;21019;-87
2021/10/08 06:14:13;;;;;;;18.70;3.20;;;;;;;9.18;51.47;102903.50;1669309;84;21045;-90
2021/10/08 06:16:39;;;;;;;16.80;3.33;;;;;;;9.61;51.65;102902.90;1669344;84;20994;-91
2021/10/08 06:19:05;;;;;;;25.70;3.45;;;;;;;10.16;51.42;102900.33;1669438;84;20987;-86
2021/10/08 06:21:31;;;;;;;20.82;2.80;;;;;;;10.26;49.09;102895.39;1669471;84;21700;-92
2021/10/08 06:23:57;;;;;;;9.68;2.98;;;;;;;10.26;48.95;102894.05;1636410;87;21146;-92
2021/10/08 06:26:23;;;;;;;19.60;3.87;;;;;;;10.31;48.81;102897.53;1636559;87;21217;-89
2021/10/08 06:28:49;;;;;;;24.43;4.00;;;;;;;10.29;48.50;102888.28;1636466;87;21109;-91
2021/10/08 06:31:15;;;;;;;9.53;3.30;;;;;;;10.40;49.13;102897.14;1636704;87;20896;-92
2021/10/08 06:33:40;;;;;;;18.82;3.67;;;;;;;10.59;48.54;102896.05;1636540;87;20876;-89
2021/10/08 06:36:06;;;;;;;25.10;3.87;;;;;;;10.68;48.08;102895.69;1636490;87;21962;-89
2021/10/08 06:38:32;;;;;;;18.90;3.70;;;;;;;10.71;48.53;102905.24;1635972;87;20915;-92
2021/10/08 06:40:58;;;;;;;18.92;4.22;;;;;;;10.69;48.38;102898.69;1636738;87;20899;-92
2021/10/08 06:43:24;;;;;;;9.85;3.58;;;;;;;10.73;48.97;102894.23;1636390;87;20998;-94
2021/10/08 06:45:50;;;;;;;17.90;3.92;;;;;;;11.05;48.22;102893.45;1636690;87;20974;-89
2021/10/08 06:48:16;;;;;;;17.35;3.60;;;;;;;11.30;47.49;102881.55;1636611;87;21025;-92
2021/10/08 06:50:42;;;;;;;14.87;3.45;;;;;;;11.71;47.17;102885.86;1636460;87;21050;-91
2021/10/08 06:53:09;;;;;;;15.72;4.03;;;;;;;12.08;47.14;102886.72;1636393;87;21157;-90
2021/10/08 06:55:36;;;;;;;15.55;3.50;;;;;;;12.15;45.84;102880.27;1636359;87;21014;-92
2021/10/08 06:58:04;;;;;;;16.48;3.47;;;;;;;11.82;45.41;102881.17;1636327;87;21034;-93
2021/10/08 07:00:30;;;;;;;14.47;3.80;;;;;;;11.92;45.80;102885.33;1636793;87;21194;-92
2021/10/08 07:02:59;;;;;;;20.23;4.33;;;;;;;12.12;45.38;102875.78;1636394;87;20983;-89
2021/10/08 07:05:26;;;;;;;24.45;4.67;;;;;;;12.81;44.54;102893.12;1633859;87;21082;-91
2021/10/08 07:07:53;;;;;;;16.65;4.60;;;;;;;13.21;44.24;102896.39;1636531;87;21103;-90
2021/10/08 07:10:20;;;;;;;23.20;5.03;;;;;;;13.79;43.89;102887.94;1636180;87;21229;-90
2021/10/08 07:12:46;;;;;;;14.65;3.52;;;;;;;14.88;43.90;102883.13;1636585;87;21108;-91
2021/10/08 07:15:17;;;;;;;20.40;4.67;;;;;;;16.13;39.90;102884.70;1640094;86;21034;-87
2021/10/08 07:17:48;;;;;;;21.55;3.47;;;;;;;15.97;38.86;102890.36;1658543;86;21122;-89
2021/10/08 07:20:18;;;;;;;11.93;3.45;;;;;;;15.61;39.22;102899.03;1655804;86;21676;-90
2021/10/08 07:22:45;;;;;;;21.80;4.17;;;;;;;14.96;39.42;102883.63;1651507;86;21066;-92
2021/10/08 07:25:11;;;;;;;18.92;3.98;;;;;;;14.04;40.69;102889.23;1652318;86;21103;-89
2021/10/08 07:27:40;;;;;;;20.72;4.10;;;;;;;13.53;41.96;102891.77;1638594;86;21590;-88
2021/10/08 07:30:08;;;;;;;19.80;4.30;;;;;;;13.22;42.65;102885.03;1659278;86;21072;-88
2021/10/08 07:32:35;;;;;;;20.75;3.98;;;;;;;12.91;43.36;102894.32;1642190;86;21005;-91
2021/10/08 07:35:01;;;;;;;21.82;3.92;;;;;;;12.73;44.35;102884.23;1629881;86;21085;-89
2021/10/08 07:37:27;;;;;;;24.47;4.40;;;;;;;12.52;44.96;102883.72;1647190;86;21639;-92
2021/10/08 07:39:54;;;;;;;33.05;5.00;;;;;;;12.50;44.86;102890.72;1663371;86;21020;-89
2021/10/08 07:42:21;;;;;;;27.27;5.05;;;;;;;12.69;44.83;102888.41;1663036;86;21074;-88
2021/10/08 07:44:48;;;;;;;31.48;8.30;;;;;;;12.89;44.42;102895.05;1663394;86;21528;-87
2021/10/08 07:47:15;;;;;;;18.17;5.20;;;;;;;12.98;43.79;102893.45;1663406;86;21096;-88
2021/10/08 07:49:42;;;;;;;18.17;4.75;;;;;;;13.10;42.93;102887.09;1663185;86;21107;-90
2021/10/08 07:52:08;;;;;;;18.17;5.05;;;;;;;13.34;43.48;102888.70;1653198;86;21139;-92
2021/10/08 07:54:35;;;;;;;18.55;4.40;;;;;;;13.78;42.66;102876.80;1661006;86;21095;-92
2021/10/08 07:57:00;;;;;;;15.93;4.55;;;;;;;14.18;41.67;102873.64;1663172;86;21123;-95
2021/10/08 07:59:27;;;;;;;21.15;5.45;;;;;;;15.31;40.60;102854.86;1662752;86;21003;-92
2021/10/08 08:01:53;;;;;;;23.80;5.08;;;;;;;16.12;39.28;102859.39;1637423;86;21959;-92
2021/10/08 08:04:19;;;;;;;15.10;4.87;;;;;;;17.17;38.44;102859.91;1661557;86;20877;-92
2021/10/08 08:06:45;;;;;;;24.02;4.62;;;;;;;18.37;36.50;102856.07;1661269;86;20991;-93
2021/10/08 08:09:11;;;;;;;22.48;5.47;;;;;;;19.06;35.14;102854.56;1661546;86;21063;-91
2021/10/08 08:11:37;;;;;;;24.05;5.00;;;;;;;18.92;33.62;102857.45;1661576;86;21074;-93
2021/10/08 08:14:04;;;;;;;22.73;6.03;;;;;;;19.05;33.95;102846.88;1662145;86;21087;-91
2021/10/08 08:16:30;;;;;;;25.70;6.00;;;;;;;19.57;33.20;102860.36;1661799;86;21058;-92
2021/10/08 08:18:56;;;;;;;15.63;4.83;;;;;;;19.83;32.30;102856.42;1659070;85;21099;-94
2021/10/08 08:21:22;;;;;;;23.90;5.95;;;;;;;19.87;31.95;102855.61;1637230;86;21066;-91
2021/10/08 08:23:48;;;;;;;32.33;7.15;;;;;;;20.18;31.94;102841.50;1600828;87;20953;-95
2021/10/08 08:26:14;;;;;;;31.35;6.50;;;;;;;20.23;30.76;102846.14;1600439;89;21142;-91
2021/10/08 08:28:41;;;;;;;21.75;7.08;;;;;;;19.85;31.37;102867.36;1612113;87;21099;-94
2021/10/08 08:31:07;;;;;;;29.05;9.23;;;;;;;19.55;31.03;102852.14;1626200;87;21106;-91
2021/10/08 08:33:35;;;;;;;29.02;9.75;;;;;;;19.05;31.49;102855.62;1628444;87;20988;-90
2021/10/08 08:36:04;;;;;;;26.20;9.25;;;;;;;18.66;31.58;102864.02;1606158;87;21003;-90
2021/10/08 08:38:30;;;;;;;31.00;9.28;;;;;;;18.50;31.17;102851.28;1587443;90;22087;-90
2021/10/08 08:40:59;;;;;;;21.55;8.45;;;;;;;18.52;31.32;102848.58;1561632;90;21614;-88
2021/10/08 08:43:28;;;;;;;27.62;8.80;;;;;;;18.41;31.49;102847.37;1587217;89;21129;-88
2021/10/08 08:45:56;;;;;;;32.38;9.00;;;;;;;18.54;31.18;102854.61;1581466;89;21042;-89
2021/10/08 08:48:22;;;;;;;32.40;11.28;;;;;;;18.50;31.37;102858.95;1586289;90;21176;-91
2021/10/08 08:50:48;;;;;;;29.67;11.40;;;;;;;18.55;30.80;102852.16;1607074;87;21939;-88
2021/10/08 08:53:23;;;;;;;31.25;11.12;;;;;;;18.46;30.86;102850.98;1607065;87;21168;-92
2021/10/08 08:55:51;;;;;;;29.92;11.70;;;;;;;18.31;30.12;102850.27;1608557;87;21134;-88
2021/10/08 08:58:21;;;;;;;37.98;15.25;;;;;;;18.10;30.24;102859.33;1632677;86;21094;-88
2021/10/08 09:01:00;;;;;;;36.40;15.65;;;;;;;17.68;30.25;102854.41;1633355;86;21058;-86
2021/10/08 09:03:26;;;;;;;76.65;20.92;;;;;;;17.62;30.46;102856.23;1572504;90;21057;-90
2021/10/08 09:05:52;;;;;;;66.42;24.52;;;;;;;17.09;29.81;102861.72;1572469;90;21058;-90
2021/10/08 09:08:19;;;;;;;79.00;26.30;;;;;;;16.35;30.42;102856.27;1572300;90;21073;-89
2021/10/08 09:10:48;;;;;;;71.42;29.35;;;;;;;15.94;30.27;102858.72;1572479;90;21677;-86
2021/10/08 09:13:17;;;;;;;79.95;29.98;;;;;;;15.43;30.84;102857.86;1572465;90;21145;-86
2021/10/08 09:15:53;;;;;;;75.35;30.48;;;;;;;15.40;31.38;102857.52;1510385;93;21639;-90
2021/10/08 09:18:28;;;;;;;79.58;32.35;;;;;;;15.30;31.37;102852.69;1511744;93;21010;-87
2021/10/08 09:21:15;;;;;;;101.18;36.55;;;;;;;15.19;31.75;102858.93;1524977;93;21095;-89
2021/10/08 09:23:49;;;;;;;121.72;38.53;;;;;;;15.05;31.47;102857.49;1525006;93;21639;-88
2021/10/08 09:26:21;;;;;;;95.20;36.35;;;;;;;14.66;31.89;102848.38;1465046;96;21112;-89
2021/10/08 09:29:05;;;;;;;92.57;37.63;;;;;;;14.55;32.58;102861.38;1465634;96;21215;-87
2021/10/08 09:31:43;;;;;;;110.55;38.75;;;;;;;14.37;31.92;102846.48;1470366;96;21187;-87
2021/10/08 09:34:23;;;;;;;98.42;36.48;;;;;;;14.06;32.35;102845.11;1449195;97;21161;-87
2021/10/08 09:36:58;;;;;;;98.97;36.05;;;;;;;13.95;32.76;102839.09;1448296;97;21191;-88
2021/10/08 09:42:02;;;;;;;92.75;35.70;;;;;;;13.87;32.46;102847.52;1441412;98;21147;-86
2021/10/08 09:44:31;;;;;;;87.37;33.45;;;;;;;13.85;32.98;102841.48;1465987;96;21161;-86
2021/10/08 09:47:22;;;;;;;106.60;36.65;;;;;;;13.71;32.33;102844.08;1465922;97;21094;-86
2021/10/08 09:49:51;;;;;;;103.60;35.65;;;;;;;13.42;32.50;102845.62;1475299;96;21221;-86
2021/10/08 09:52:27;;;;;;;130.67;37.15;;;;;;;13.16;33.15;102837.47;1466189;96;21466;-87
2021/10/08 09:54:56;;;;;;;102.50;36.53;;;;;;;13.01;33.49;102839.69;1466496;96;21155;-82
2021/10/08 09:57:24;;;;;;;113.45;39.63;;;;;;;12.94;33.73;102849.72;1461679;96;21135;-88
2021/10/08 09:59:52;;;;;;;107.35;35.73;;;;;;;12.86;33.36;102835.13;1461272;96;21228;-85
2021/10/08 10:02:19;;;;;;;100.33;35.43;;;;;;;12.69;33.41;102838.36;1462985;96;21076;-87
2021/10/08 10:04:54;;;;;;;102.62;35.00;;;;;;;12.57;33.75;102815.77;1459453;96;21168;-86
2021/10/08 10:07:23;;;;;;;100.12;31.02;;;;;;;12.74;34.07;102828.25;1468720;96;21621;-83
2021/10/08 10:09:50;;;;;;;85.15;29.52;;;;;;;12.85;34.29;102824.84;1476185;95;21813;-90
2021/10/08 10:12:20;;;;;;;90.50;29.87;;;;;;;12.75;34.00;102825.02;1483491;93;21550;-90
2021/10/08 10:14:49;;;;;;;87.62;30.60;;;;;;;12.55;33.87;102809.73;1510362;93;21073;-89
2021/10/08 10:17:17;;;;;;;108.47;34.88;;;;;;;12.53;34.41;102811.00;1510231;93;21136;-88
2021/10/08 10:19:47;;;;;;;131.80;40.12;;;;;;;12.73;33.54;102805.78;1510487;93;21981;-86
2021/10/08 10:22:17;;;;;;;83.20;30.32;;;;;;;12.76;33.36;102800.95;1510327;93;21165;-93
2021/10/08 10:24:46;;;;;;;81.22;29.72;;;;;;;12.71;33.22;102797.58;1492035;93;21011;-91
2021/10/08 10:27:16;;;;;;;112.28;37.67;;;;;;;12.67;32.74;102803.09;1509911;93;21156;-88
2021/10/08 10:29:45;;;;;;;96.87;32.85;;;;;;;12.52;33.13;102795.83;1464556;96;21703;-90
2021/10/08 10:32:13;;;;;;;85.07;28.47;;;;;;;12.61;33.21;102789.10;1470032;96;21216;-87
2021/10/08 10:34:40;;;;;;;74.47;25.15;;;;;;;12.65;32.21;102791.16;1469898;96;21546;-88
2021/10/08 10:37:09;;;;;;;72.05;19.20;;;;;;;12.71;31.80;102800.28;1470138;96;21575;-87
2021/10/08 10:39:36;;;;;;;50.25;18.67;;;;;;;12.70;31.09;102799.42;1526487;92;21564;-88
2021/10/08 10:42:13;;;;;;;63.02;20.95;;;;;;;12.66;30.69;102788.75;1471722;96;21077;-88
2021/10/08 10:44:40;;;;;;;77.75;24.30;;;;;;;12.61;30.70;102791.80;1543591;90;21615;-88
2021/10/08 10:50:16;;;;;;;79.60;24.65;;;;;;;12.79;31.81;102786.45;1599713;88;21581;-88
2021/10/08 10:52:55;;;;;;;51.70;17.07;;;;;;;12.86;31.98;102783.72;1499863;93;21266;-90
2021/10/08 10:55:24;;;;;;;58.15;17.25;;;;;;;12.89;30.90;102782.74;1500070;93;21157;-88
2021/10/08 10:57:55;;;;;;;45.70;15.13;;;;;;;12.76;30.61;102781.48;1500421;93;21170;-88
2021/10/08 11:00:39;;;;;;;35.45;12.33;;;;;;;12.56;30.86;102781.66;1508243;93;21143;-88
2021/10/08 11:03:12;;;;;;;30.50;11.03;;;;;;;12.38;31.17;102792.37;1507644;92;21122;-87
2021/10/08 11:05:41;;;;;;;;;;;;;;;12.16;31.27;102777.84;1497791;94;21131;-88
2021/10/08 11:08:18;;;;;;;26.23;9.05;;;;;;;12.14;30.91;102783.98;1495602;93;20212;-87
2021/10/08 11:11:14;;;;;;;24.10;8.35;;;;;;;12.10;30.86;102783.30;1495823;94;21156;-87
2021/10/08 11:13:40;;;;;;;30.95;8.45;;;;;;;12.09;31.41;102785.17;1495754;94;20985;-87
2021/10/08 11:16:10;;;;;;;24.47;8.23;;;;;;;12.19;32.13;102785.52;1495687;94;20973;-88
2021/10/08 11:18:43;;;;;;;24.20;8.28;;;;;;;12.20;31.66;102782.29;1471226;96;21109;-87
2021/10/08 11:21:34;;;;;;;26.25;7.72;;;;;;;12.21;31.67;102781.27;1471558;94;22291;-89
2021/10/08 11:24:13;;;;;;;26.70;7.22;;;;;;;12.27;31.64;102779.86;1470991;96;21216;-88
2021/10/08 11:26:40;;;;;;;33.18;7.30;;;;;;;12.21;31.51;102786.14;1440483;98;21429;-89
2021/10/08 11:29:06;;;;;;;15.80;6.55;;;;;;;12.31;31.45;102780.25;1470404;94;21135;-88
2021/10/08 11:31:32;;;;;;;19.32;5.92;;;;;;;12.50;31.53;102783.36;1494437;94;21142;-93